Time;durP1;ratioP1;P1;durP2;ratioP2;P2;SDS_P1;SDS_P2;PMS_P1;PMS_P2;Temp;Humidity;BMP_temperature;BMP_pressure;BME280_temperature;BME280_humidity;BME280_pressure;Samples;Min_cycle;Max_cycle;Signal;HPM_P1;HPM_P2
2021/11/05 00:02:24;;;;;;;13.25;3.97;;;;;;;10.03;100.00;100265.03;4965215;28;20058;-65
2021/11/05 00:04:50;;;;;;;13.18;3.75;;;;;;;10.02;100.00;100263.47;4979714;28;20031;-65
2021/11/05 00:07:15;;;;;;;11.48;3.85;;;;;;;10.00;100.00;100255.78;4986701;28;20034;-65
2021/11/05 00:09:41;;;;;;;12.05;3.88;;;;;;;10.08;100.00;100267.44;4978059;28;20031;-65
2021/11/05 00:12:08;;;;;;;12.57;4.82;;;;;;;10.07;100.00;100263.16;4977465;28;20122;-65
2021/11/05 00:14:34;;;;;;;13.18;3.42;;;;;;;9.99;100.00;100264.19;4976584;28;20042;-65
2021/11/05 00:16:59;;;;;;;9.38;3.72;;;;;;;9.94;100.00;100273.34;4975874;28;20030;-65
2021/11/05 00:19:24;;;;;;;11.93;3.85;;;;;;;9.93;100.00;100268.31;4981760;28;20046;-65
2021/11/05 00:21:50;;;;;;;11.15;3.13;;;;;;;9.94;100.00;100272.56;4981150;28;20026;-65
2021/11/05 00:24:15;;;;;;;12.30;4.03;;;;;;;9.98;100.00;100281.47;4983686;28;20026;-65
2021/11/05 00:26:41;;;;;;;10.57;4.05;;;;;;;9.97;100.00;100282.59;4982006;28;20810;-65
2021/11/05 00:29:06;;;;;;;8.45;3.72;;;;;;;9.91;100.00;100279.44;4977983;28;20133;-65
2021/11/05 00:31:32;;;;;;;9.23;3.60;;;;;;;9.85;100.00;100291.63;4978743;28;20049;-65
2021/11/05 00:33:57;;;;;;;10.88;4.70;;;;;;;9.85;100.00;100297.00;4986903;28;20031;-65
2021/11/05 00:36:23;;;;;;;8.75;3.50;;;;;;;9.86;100.00;100293.19;4984227;28;20045;-65
2021/11/05 00:38:48;;;;;;;13.82;4.03;;;;;;;9.84;100.00;100300.06;4979522;28;20524;-65
2021/11/05 00:41:15;;;;;;;7.40;3.42;;;;;;;9.78;100.00;100302.28;4979224;28;20118;-65
2021/11/05 00:43:41;;;;;;;6.95;3.25;;;;;;;9.83;100.00;100306.59;4979096;28;20660;-65
2021/11/05 00:46:07;;;;;;;12.90;4.68;;;;;;;9.83;100.00;100304.66;4985573;28;20033;-65
2021/11/05 00:48:32;;;;;;;9.23;3.70;;;;;;;9.83;100.00;100317.34;4978350;28;20477;-65
2021/11/05 00:50:58;;;;;;;10.88;4.18;;;;;;;9.86;100.00;100319.31;4978353;28;20082;-65
2021/11/05 00:53:24;;;;;;;8.77;3.75;;;;;;;9.84;100.00;100321.56;4980224;28;20030;-65
2021/11/05 00:55:49;;;;;;;15.18;4.15;;;;;;;9.88;100.00;100327.78;4986162;28;20508;-65
2021/11/05 00:58:16;;;;;;;7.50;3.50;;;;;;;9.87;100.00;100327.00;4985070;28;20089;-65
2021/11/05 01:00:42;;;;;;;12.45;4.28;;;;;;;9.84;100.00;100338.50;4982456;28;20524;-64
2021/11/05 01:03:07;;;;;;;9.82;3.65;;;;;;;9.79;100.00;100335.31;4982835;28;20034;-65
2021/11/05 01:05:33;;;;;;;11.65;3.03;;;;;;;9.78;100.00;100342.59;4981645;28;20042;-64
2021/11/05 01:08:00;;;;;;;11.90;4.13;;;;;;;9.77;100.00;100343.75;4980445;28;20030;-65
2021/11/05 01:10:26;;;;;;;9.05;3.72;;;;;;;9.85;100.00;100334.66;4981946;28;20030;-65
2021/11/05 01:12:52;;;;;;;10.35;3.47;;;;;;;9.78;100.00;100347.97;4980563;28;20673;-64
2021/11/05 01:15:17;;;;;;;10.77;3.03;;;;;;;9.79;100.00;100349.53;4986458;28;20036;-65
2021/11/05 01:17:43;;;;;;;11.25;3.50;;;;;;;9.76;100.00;100352.16;4975748;28;20070;-65
2021/11/05 01:20:12;;;;;;;6.38;2.58;;;;;;;9.76;100.00;100354.84;4978401;28;20039;-65
2021/11/05 01:22:38;;;;;;;12.30;4.03;;;;;;;9.78;100.00;100345.28;4981278;28;20049;-65
2021/11/05 01:25:04;;;;;;;9.27;2.80;;;;;;;9.72;100.00;100365.53;4976930;28;20034;-65
2021/11/05 01:27:29;;;;;;;9.45;3.60;;;;;;;9.69;100.00;100365.47;4988462;28;20042;-65
2021/11/05 01:29:58;;;;;;;5.90;3.28;;;;;;;9.69;100.00;100373.53;4986620;28;20030;-64
2021/11/05 01:32:25;;;;;;;12.55;3.78;;;;;;;9.76;100.00;100370.97;4985630;28;20035;-65
2021/11/05 01:34:51;;;;;;;16.38;4.10;;;;;;;9.76;100.00;100370.97;4976985;28;20026;-65
2021/11/05 01:37:16;;;;;;;10.63;3.67;;;;;;;9.66;100.00;100376.91;4979676;28;20582;-64
2021/11/05 01:39:42;;;;;;;7.95;3.38;;;;;;;9.74;100.00;100373.25;4981894;28;20049;-65
2021/11/05 01:42:08;;;;;;;8.40;3.33;;;;;;;9.71;100.00;100377.44;4982309;28;20061;-65
2021/11/05 01:44:34;;;;;;;6.55;3.00;;;;;;;9.78;100.00;100390.22;4986697;28;20038;-65
2021/11/05 01:47:02;;;;;;;12.48;4.10;;;;;;;9.70;100.00;100378.56;4979071;28;20034;-65
2021/11/05 01:49:29;;;;;;;10.75;3.63;;;;;;;9.69;100.00;100393.16;4967393;28;20448;-65
2021/11/05 01:51:55;;;;;;;7.65;3.60;;;;;;;9.70;100.00;100391.22;4981021;28;20838;-65
2021/11/05 01:54:21;;;;;;;11.43;3.65;;;;;;;9.66;100.00;100396.53;4979102;28;20405;-65
2021/11/05 01:56:47;;;;;;;8.73;3.58;;;;;;;9.63;100.00;100396.47;4979588;28;20042;-65
2021/11/05 01:59:28;;;;;;;7.88;3.35;;;;;;;9.62;100.00;100398.38;4982012;28;20035;-65
2021/11/05 02:01:55;;;;;;;8.65;3.72;;;;;;;9.63;100.00;100401.84;4984509;28;20034;-65
2021/11/05 02:04:21;;;;;;;9.73;4.03;;;;;;;9.70;100.00;100401.97;4978700;28;20042;-65
2021/11/05 02:06:49;;;;;;;9.10;3.28;;;;;;;9.63;100.00;100413.38;4987082;28;20116;-65
2021/11/05 02:09:17;;;;;;;13.15;3.38;;;;;;;9.60;100.00;100418.69;4979660;28;20039;-65
2021/11/05 02:11:43;;;;;;;8.05;3.45;;;;;;;9.64;100.00;100416.84;4981622;28;20165;-65
2021/11/05 02:14:17;;;;;;;9.52;3.22;;;;;;;9.59;100.00;100423.28;4987049;28;20519;-65
2021/11/05 02:16:45;;;;;;;12.32;3.45;;;;;;;9.57;100.00;100414.78;4982147;28;20041;-65
2021/11/05 02:19:13;;;;;;;8.23;2.95;;;;;;;9.58;100.00;100429.00;4988016;28;20078;-65
2021/11/05 02:21:40;;;;;;;12.30;4.07;;;;;;;9.56;100.00;100423.22;4980166;28;20822;-65
2021/11/05 02:24:06;;;;;;;9.38;3.53;;;;;;;9.59;100.00;100433.25;4978625;28;20556;-65
2021/11/05 02:26:33;;;;;;;11.43;3.63;;;;;;;9.54;100.00;100430.84;4985101;28;20421;-65
2021/11/05 02:28:58;;;;;;;8.88;3.22;;;;;;;9.54;100.00;100431.59;4977110;28;20040;-65
2021/11/05 02:31:24;;;;;;;8.57;3.05;;;;;;;9.54;100.00;100430.84;4978707;28;20497;-65
2021/11/05 02:33:49;;;;;;;6.55;3.28;;;;;;;9.50;100.00;100424.63;4976735;28;20441;-65
2021/11/05 02:36:15;;;;;;;10.30;3.45;;;;;;;9.49;100.00;100431.13;4984120;28;20428;-65
2021/11/05 02:38:41;;;;;;;8.75;3.17;;;;;;;9.42;100.00;100436.34;4981430;28;20125;-65
2021/11/05 02:41:07;;;;;;;8.35;3.58;;;;;;;9.46;100.00;100434.50;4971516;28;20057;-65
2021/11/05 02:43:33;;;;;;;11.43;3.72;;;;;;;9.38;100.00;100444.34;4978591;28;20038;-65
2021/11/05 02:45:58;;;;;;;7.25;3.22;;;;;;;9.42;100.00;100452.47;4978298;28;20117;-65
2021/11/05 02:48:26;;;;;;;5.95;2.47;;;;;;;9.44;100.00;100450.22;4975777;28;20039;-65
2021/11/05 02:50:52;;;;;;;9.95;2.70;;;;;;;9.44;100.00;100455.59;4977662;28;20045;-65
2021/11/05 02:53:18;;;;;;;10.57;3.65;;;;;;;9.36;100.00;100451.97;4976986;28;20038;-65
2021/11/05 02:55:43;;;;;;;11.20;3.67;;;;;;;9.38;100.00;100455.09;4975928;28;20046;-65
2021/11/05 02:58:09;;;;;;;9.38;3.40;;;;;;;9.36;100.00;100461.94;4984249;28;20497;-65
2021/11/05 03:00:35;;;;;;;10.27;2.88;;;;;;;9.32;100.00;100461.06;4978160;28;20406;-65
2021/11/05 03:03:00;;;;;;;8.75;3.05;;;;;;;9.33;100.00;100468.03;4979681;28;20045;-64
2021/11/05 03:05:26;;;;;;;9.65;3.72;;;;;;;9.31;100.00;100471.03;4977249;28;20036;-65
2021/11/05 03:07:52;;;;;;;7.85;2.95;;;;;;;9.34;100.00;100469.56;4981382;28;20496;-64
2021/11/05 03:10:17;;;;;;;11.68;3.78;;;;;;;9.27;100.00;100485.53;4975806;28;20657;-65
2021/11/05 03:12:45;;;;;;;9.10;3.03;;;;;;;9.25;100.00;100479.75;4975768;28;20054;-64
2021/11/05 03:15:11;;;;;;;10.98;3.20;;;;;;;9.20;100.00;100482.69;4975823;28;20069;-65
2021/11/05 03:17:37;;;;;;;7.78;3.13;;;;;;;9.23;100.00;100498.13;4972046;28;20023;-65
2021/11/05 03:20:05;;;;;;;10.00;2.92;;;;;;;9.26;100.00;100502.78;4968983;28;20564;-65
2021/11/05 03:22:31;;;;;;;11.60;3.17;;;;;;;9.29;100.00;100496.72;4977921;28;20031;-65
2021/11/05 03:24:56;;;;;;;7.97;2.55;;;;;;;9.26;100.00;100500.88;4982834;28;20111;-65
2021/11/05 03:27:22;;;;;;;8.73;3.15;;;;;;;9.26;100.00;100500.88;4976337;28;20455;-65
2021/11/05 03:29:47;;;;;;;6.28;2.90;;;;;;;9.26;100.00;100508.16;4982460;28;20022;-65
2021/11/05 03:32:13;;;;;;;12.70;3.03;;;;;;;9.27;100.00;100512.41;4972192;28;20031;-64
2021/11/05 03:34:39;;;;;;;10.77;3.25;;;;;;;9.24;100.00;100513.88;4973933;28;20074;-65
2021/11/05 03:37:05;;;;;;;11.73;3.78;;;;;;;9.29;100.00;100518.22;4972648;28;20042;-65
2021/11/05 03:39:30;;;;;;;8.38;3.80;;;;;;;9.27;100.00;100520.47;4975514;28;20074;-65
2021/11/05 03:41:57;;;;;;;11.70;3.38;;;;;;;9.26;100.00;100521.59;4971794;28;20085;-64
2021/11/05 03:44:23;;;;;;;6.82;3.17;;;;;;;9.24;100.00;100526.53;4977594;28;20034;-65
2021/11/05 03:46:48;;;;;;;8.88;3.25;;;;;;;9.22;100.00;100526.09;4970523;28;20066;-65
2021/11/05 03:49:14;;;;;;;6.65;2.55;;;;;;;9.18;100.00;100522.53;4981096;28;20616;-65
2021/11/05 03:51:40;;;;;;;8.90;3.03;;;;;;;9.30;100.00;100533.97;4971076;28;20122;-65
2021/11/05 03:54:06;;;;;;;8.48;2.90;;;;;;;9.38;100.00;100537.59;4978034;28;20393;-65
2021/11/05 03:56:33;;;;;;;7.55;2.88;;;;;;;9.37;100.00;100531.44;4972661;28;20038;-65
2021/11/05 03:58:59;;;;;;;6.32;2.45;;;;;;;9.42;100.00;100546.53;4974705;28;20045;-65
2021/11/05 04:01:25;;;;;;;8.45;3.20;;;;;;;9.34;100.00;100545.59;4984538;28;20117;-65
2021/11/05 04:03:50;;;;;;;9.35;2.90;;;;;;;9.35;100.00;100554.44;4985150;28;20894;-65
2021/11/05 04:06:17;;;;;;;6.57;2.80;;;;;;;9.39;100.00;100560.69;4980397;28;20027;-65
2021/11/05 04:08:43;;;;;;;8.32;3.50;;;;;;;9.46;100.00;100564.31;4978551;28;20030;-65
2021/11/05 04:11:09;;;;;;;6.68;2.97;;;;;;;9.47;100.00;100567.75;4980755;28;20049;-65
2021/11/05 04:13:34;;;;;;;10.93;3.17;;;;;;;9.47;100.00;100573.91;4989494;28;20038;-65
2021/11/05 04:16:00;;;;;;;7.20;2.60;;;;;;;9.50;100.00;100578.63;4986026;28;20037;-64
2021/11/05 04:18:25;;;;;;;4.95;2.17;;;;;;;9.48;100.00;100577.41;4974522;28;20408;-64
2021/11/05 04:20:51;;;;;;;6.50;2.45;;;;;;;9.41;100.00;100588.75;4975422;28;20419;-65
2021/11/05 04:23:17;;;;;;;11.13;3.53;;;;;;;9.37;100.00;100581.75;4982182;28;20046;-64
2021/11/05 04:25:43;;;;;;;7.65;3.13;;;;;;;9.35;100.00;100592.06;4987180;28;20061;-65
2021/11/05 04:28:09;;;;;;;9.75;3.05;;;;;;;9.32;100.00;100590.06;4951531;28;20038;-65
2021/11/05 04:30:35;;;;;;;8.70;2.95;;;;;;;9.32;100.00;100595.44;4983703;28;21542;-65
2021/11/05 04:33:01;;;;;;;6.20;2.75;;;;;;;9.26;100.00;100602.97;4979474;28;20532;-65
2021/11/05 04:35:26;;;;;;;8.43;2.85;;;;;;;9.28;100.00;100605.31;4977626;28;20158;-65
2021/11/05 04:37:52;;;;;;;8.48;2.85;;;;;;;9.21;100.00;100615.88;4983093;28;20081;-65
2021/11/05 04:40:17;;;;;;;6.65;3.20;;;;;;;9.20;100.00;100614.31;4987148;28;20089;-65
2021/11/05 04:42:43;;;;;;;14.40;3.17;;;;;;;9.14;100.00;100621.09;4982459;28;20563;-65
2021/11/05 04:45:09;;;;;;;8.52;3.10;;;;;;;9.18;100.00;100611.97;4985736;28;20038;-64
2021/11/05 04:47:34;;;;;;;6.60;2.65;;;;;;;9.17;100.00;100623.06;4977407;28;20501;-65
2021/11/05 04:50:00;;;;;;;8.80;2.30;;;;;;;9.19;100.00;100620.81;4985077;28;20038;-65
2021/11/05 04:52:25;;;;;;;6.88;2.53;;;;;;;9.25;100.00;100627.50;4991192;28;20523;-65
2021/11/05 04:54:51;;;;;;;8.18;2.97;;;;;;;9.28;100.00;100638.34;4978952;28;20922;-65
2021/11/05 04:57:16;;;;;;;12.15;3.17;;;;;;;9.33;100.00;100645.38;4984625;28;20034;-65
2021/11/05 04:59:42;;;;;;;5.82;2.90;;;;;;;9.39;100.00;100649.38;4979095;28;20062;-65
2021/11/05 05:02:07;;;;;;;9.48;2.85;;;;;;;9.43;100.00;100659.06;4978443;28;20046;-65
2021/11/05 05:04:33;;;;;;;10.00;3.28;;;;;;;9.39;100.00;100666.25;4976007;28;20046;-65
2021/11/05 05:06:58;;;;;;;6.93;2.55;;;;;;;9.44;100.00;100657.16;4977212;28;20094;-65
2021/11/05 05:09:24;;;;;;;6.40;2.53;;;;;;;9.43;100.00;100669.03;4979255;28;20026;-65
2021/11/05 05:11:49;;;;;;;5.70;2.63;;;;;;;9.43;100.00;100669.03;4977768;28;20058;-65
2021/11/05 05:14:16;;;;;;;6.90;2.63;;;;;;;9.43;100.00;100674.41;4977566;28;20050;-64
2021/11/05 05:16:42;;;;;;;6.13;2.80;;;;;;;9.39;100.00;100670.88;4973004;28;20093;-65
2021/11/05 05:19:08;;;;;;;7.30;2.58;;;;;;;9.41;100.00;100676.66;4987311;28;20038;-64
2021/11/05 05:21:34;;;;;;;7.93;2.38;;;;;;;9.38;100.00;100682.72;4977006;28;20038;-64
2021/11/05 05:23:59;;;;;;;7.95;2.65;;;;;;;9.36;100.00;100684.97;4973351;28;20066;-63
2021/11/05 05:26:25;;;;;;;4.20;2.13;;;;;;;9.36;100.00;100693.03;4979098;28;20030;-63
2021/11/05 05:28:50;;;;;;;8.77;2.85;;;;;;;9.36;100.00;100684.97;4973773;28;20110;-63
2021/11/05 05:31:16;;;;;;;9.55;3.13;;;;;;;9.31;100.00;100682.56;4984936;28;20493;-64
2021/11/05 05:33:42;;;;;;;6.95;2.80;;;;;;;9.27;100.00;100687.06;4977813;28;20657;-64
2021/11/05 05:36:08;;;;;;;12.43;2.85;;;;;;;9.24;100.00;100693.88;4974731;28;20038;-64
2021/11/05 05:38:35;;;;;;;5.18;1.92;;;;;;;9.21;100.00;100691.91;4976803;28;20125;-66
2021/11/05 05:41:01;;;;;;;7.70;2.83;;;;;;;9.22;100.00;100692.66;4976347;28;20045;-68
2021/11/05 05:43:27;;;;;;;8.27;2.55;;;;;;;9.22;100.00;100696.13;4976912;28;20042;-66
2021/11/05 05:45:53;;;;;;;6.13;2.42;;;;;;;9.23;100.00;100699.63;4979335;28;20038;-66
2021/11/05 05:48:20;;;;;;;6.10;2.35;;;;;;;9.14;100.00;100709.75;4981831;28;20045;-65
2021/11/05 05:50:46;;;;;;;9.40;2.55;;;;;;;9.13;100.00;100713.53;4979992;28;20094;-66
2021/11/05 05:53:11;;;;;;;8.00;2.95;;;;;;;9.08;100.00;100712.66;4977408;28;20037;-66
2021/11/05 05:55:39;;;;;;;7.05;2.47;;;;;;;9.04;100.00;100717.16;4972461;28;20070;-66
2021/11/05 05:58:06;;;;;;;7.68;2.50;;;;;;;8.98;100.00;100717.75;4981692;28;20506;-67
2021/11/05 06:00:32;;;;;;;6.68;2.25;;;;;;;8.97;100.00;100722.34;4975467;28;20166;-67
2021/11/05 06:02:58;;;;;;;7.15;2.65;;;;;;;8.99;100.00;100741.59;4978786;28;20092;-65
2021/11/05 06:05:24;;;;;;;6.38;2.60;;;;;;;8.96;100.00;100736.13;4973434;28;20042;-66
2021/11/05 06:07:49;;;;;;;6.07;2.22;;;;;;;8.88;100.00;100737.78;4974896;28;20069;-66
2021/11/05 06:10:15;;;;;;;5.60;2.63;;;;;;;8.85;100.00;100749.22;4972260;28;20046;-66
2021/11/05 06:12:41;;;;;;;6.30;2.33;;;;;;;8.88;100.00;100745.09;4976684;28;20047;-66
2021/11/05 06:15:07;;;;;;;6.90;2.80;;;;;;;8.85;100.00;100751.91;4980327;28;20497;-65
2021/11/05 06:17:33;;;;;;;9.90;2.80;;;;;;;8.85;100.00;100761.88;4974061;28;20105;-66
2021/11/05 06:19:59;;;;;;;8.23;2.50;;;;;;;8.79;100.00;100766.69;4955883;28;20132;-68
2021/11/05 06:22:25;;;;;;;6.63;2.47;;;;;;;8.78;100.00;100775.88;4972948;28;20497;-66
2021/11/05 06:24:50;;;;;;;6.90;2.75;;;;;;;8.84;100.00;100782.59;4975645;28;20038;-66
2021/11/05 06:27:16;;;;;;;7.70;2.58;;;;;;;8.82;100.00;100779.47;4973899;28;20529;-66
2021/11/05 06:29:42;;;;;;;6.60;3.05;;;;;;;8.86;100.00;100780.34;4979556;28;20425;-67
2021/11/05 06:32:08;;;;;;;6.00;3.05;;;;;;;8.88;100.00;100774.63;4970095;28;20042;-66
2021/11/05 06:34:34;;;;;;;5.30;2.72;;;;;;;8.84;100.00;100782.59;4973245;28;20470;-66
2021/11/05 06:37:00;;;;;;;7.30;2.83;;;;;;;8.87;100.00;100789.94;4971591;28;20030;-66
2021/11/05 06:39:25;;;;;;;6.68;2.58;;;;;;;8.95;100.00;100799.00;4977308;28;20737;-66
2021/11/05 06:41:51;;;;;;;6.63;2.40;;;;;;;8.98;100.00;100796.41;4977621;28;22005;-66
2021/11/05 06:44:17;;;;;;;5.88;2.63;;;;;;;8.94;100.00;100797.44;4968645;28;20035;-64
2021/11/05 06:46:42;;;;;;;7.57;2.35;;;;;;;8.92;100.00;100803.13;4977766;28;20046;-66
2021/11/05 06:49:08;;;;;;;5.60;2.50;;;;;;;8.96;100.00;100809.38;4966652;28;20072;-66
2021/11/05 06:51:34;;;;;;;14.68;3.40;;;;;;;8.99;100.00;100806.03;4971096;28;20073;-65
2021/11/05 06:53:59;;;;;;;6.88;3.13;;;;;;;9.02;100.00;100809.94;4976399;28;20038;-66
2021/11/05 06:56:25;;;;;;;11.77;3.30;;;;;;;9.07;100.00;100810.50;4975762;28;20126;-64
2021/11/05 06:58:52;;;;;;;4.90;2.17;;;;;;;9.04;100.00;100813.06;4971205;28;20390;-66
2021/11/05 07:01:18;;;;;;;9.10;3.03;;;;;;;9.05;100.00;100811.94;4977720;28;20053;-65
2021/11/05 07:03:43;;;;;;;4.43;2.28;;;;;;;9.03;100.00;100823.03;4968699;28;20042;-65
2021/11/05 07:06:10;;;;;;;7.07;2.92;;;;;;;9.04;100.00;100821.91;4973822;28;20050;-66
2021/11/05 07:08:35;;;;;;;4.90;2.25;;;;;;;9.07;100.00;100826.63;4972806;28;20085;-63
2021/11/05 07:11:01;;;;;;;7.65;2.88;;;;;;;9.08;100.00;100836.22;4972153;28;20416;-65
2021/11/05 07:13:27;;;;;;;7.22;2.75;;;;;;;9.04;100.00;100843.41;4974357;28;20045;-66
2021/11/05 07:15:54;;;;;;;6.00;2.83;;;;;;;9.06;100.00;100845.72;4973691;28;20035;-65
2021/11/05 07:18:19;;;;;;;6.78;2.97;;;;;;;9.05;100.00;100847.66;4975443;28;20513;-66
2021/11/05 07:20:45;;;;;;;8.73;2.75;;;;;;;9.05;100.00;100857.63;4974101;28;20030;-66
2021/11/05 07:23:12;;;;;;;8.75;3.00;;;;;;;9.03;100.00;100849.91;4977828;28;20445;-65
2021/11/05 07:25:39;;;;;;;5.30;2.35;;;;;;;9.06;100.00;100859.16;4979476;28;20041;-66
2021/11/05 07:28:05;;;;;;;8.93;2.75;;;;;;;9.08;100.00;100860.41;4970704;28;20038;-66
2021/11/05 07:30:31;;;;;;;7.82;2.90;;;;;;;9.10;100.00;100860.06;4974046;28;20057;-66
2021/11/05 07:32:57;;;;;;;4.20;2.33;;;;;;;9.08;100.00;100864.97;4977125;28;20050;-65
2021/11/05 07:35:23;;;;;;;6.93;2.42;;;;;;;9.02;100.00;100867.13;4981497;28;20514;-64
2021/11/05 07:37:49;;;;;;;8.73;2.47;;;;;;;9.02;100.00;100872.50;4978879;28;20097;-65
2021/11/05 07:40:17;;;;;;;7.13;2.60;;;;;;;9.10;100.00;100874.28;4976399;28;20132;-65
2021/11/05 07:42:44;;;;;;;7.65;2.72;;;;;;;9.20;100.00;100877.59;4983750;28;20714;-66
2021/11/05 07:45:12;;;;;;;6.90;2.92;;;;;;;9.18;100.00;100880.63;4981204;28;20121;-67
2021/11/05 07:47:39;;;;;;;8.88;2.40;;;;;;;9.27;100.00;100883.97;4972429;28;20042;-66
2021/11/05 07:50:06;;;;;;;8.25;2.53;;;;;;;9.29;100.00;100880.97;4976412;28;20018;-65
2021/11/05 07:52:32;;;;;;;9.52;3.10;;;;;;;9.34;100.00;100899.53;4976872;28;20042;-66
2021/11/05 07:54:58;;;;;;;7.95;3.00;;;;;;;9.40;100.00;100906.22;4974434;28;20031;-64
2021/11/05 07:57:23;;;;;;;6.47;2.08;;;;;;;9.47;100.00;100898.34;4974888;28;20478;-66
2021/11/05 07:59:49;;;;;;;3.28;1.60;;;;;;;9.54;100.00;100903.97;4968705;28;20042;-65
2021/11/05 08:02:15;;;;;;;5.03;2.38;;;;;;;9.67;100.00;100918.91;4984161;28;20035;-66
2021/11/05 08:04:40;;;;;;;9.80;2.78;;;;;;;9.77;100.00;100923.81;4976232;28;20035;-65
2021/11/05 08:07:06;;;;;;;8.15;2.75;;;;;;;9.86;100.00;100933.31;4976816;28;20039;-66
2021/11/05 08:09:31;;;;;;;9.02;2.90;;;;;;;9.93;100.00;100933.47;4979955;28;20116;-64
2021/11/05 08:11:57;;;;;;;6.78;2.67;;;;;;;10.10;100.00;100931.66;4976926;28;20043;-66
2021/11/05 08:14:23;;;;;;;8.68;3.13;;;;;;;10.12;100.00;100930.19;4976567;28;20061;-66
2021/11/05 08:16:48;;;;;;;7.82;2.20;;;;;;;10.18;100.00;100942.25;4972388;28;20035;-65
2021/11/05 08:19:14;;;;;;;9.70;2.80;;;;;;;10.22;100.00;100951.19;4979339;28;20033;-65
2021/11/05 08:21:39;;;;;;;9.52;2.40;;;;;;;10.26;100.00;100949.38;4972483;28;20442;-66
2021/11/05 08:24:05;;;;;;;4.60;2.38;;;;;;;10.30;100.00;100957.56;4976395;28;20074;-64
2021/11/05 08:26:32;;;;;;;5.20;2.05;;;;;;;10.41;100.00;100964.78;4975671;28;20031;-64
2021/11/05 08:28:59;;;;;;;9.57;2.83;;;;;;;10.47;100.00;100966.09;4971818;28;20038;-66
2021/11/05 08:31:25;;;;;;;8.25;2.45;;;;;;;10.51;100.00;100964.25;4975668;28;20045;-66
2021/11/05 08:33:52;;;;;;;6.80;2.53;;;;;;;10.55;100.00;100965.13;4971790;28;20421;-66
2021/11/05 08:36:22;;;;;;;8.70;2.65;;;;;;;10.62;100.00;100976.09;4977321;28;20042;-66
2021/11/05 08:38:49;;;;;;;3.53;2.38;;;;;;;10.68;100.00;100984.72;4976289;28;20035;-65
2021/11/05 08:41:18;;;;;;;4.82;1.70;;;;;;;10.64;100.00;100984.63;4972758;28;20049;-65
2021/11/05 08:43:46;;;;;;;5.75;2.00;;;;;;;10.68;100.00;100982.00;4973284;28;20031;-66
2021/11/05 08:46:16;;;;;;;7.10;2.65;;;;;;;10.74;100.00;100989.47;4973549;28;20027;-66
2021/11/05 08:48:44;;;;;;;5.28;2.42;;;;;;;10.79;100.00;100997.31;4974931;28;20058;-66
2021/11/05 08:51:11;;;;;;;8.70;3.17;;;;;;;10.82;100.00;100999.28;4974517;28;20078;-66
2021/11/05 08:53:38;;;;;;;6.40;2.38;;;;;;;10.82;100.00;100995.81;4971586;28;20038;-66
2021/11/05 08:56:04;;;;;;;4.55;2.08;;;;;;;10.77;100.00;100996.09;4976658;28;20114;-65
2021/11/05 08:58:32;;;;;;;6.90;2.60;;;;;;;10.88;100.00;101005.19;4973733;28;20035;-66
2021/11/05 09:00:58;;;;;;;5.15;2.55;;;;;;;10.85;100.00;101006.69;4971757;28;20034;-66
2021/11/05 09:03:24;;;;;;;4.60;2.03;;;;;;;10.80;100.00;101009.63;4979912;28;20069;-66
2021/11/05 09:05:50;;;;;;;3.20;1.92;;;;;;;10.84;100.00;101009.72;4984496;28;20068;-66
2021/11/05 09:08:15;;;;;;;3.40;1.77;;;;;;;10.94;100.00;101019.22;4981045;28;20088;-66
2021/11/05 09:11:01;;;;;;;4.53;2.17;;;;;;;11.01;100.00;101024.78;4979449;28;20073;-66
2021/11/05 09:13:28;;;;;;;4.78;1.98;;;;;;;11.10;100.00;101028.06;4936636;28;20048;-66
2021/11/05 09:15:54;;;;;;;3.45;1.88;;;;;;;11.22;100.00;101033.38;4940055;28;20076;-64
2021/11/05 09:18:19;;;;;;;4.82;2.03;;;;;;;11.20;100.00;101031.03;4947289;28;20483;-65
2021/11/05 09:20:45;;;;;;;3.08;1.70;;;;;;;11.23;100.00;101029.53;4943123;28;20031;-66
2021/11/05 09:23:10;;;;;;;9.40;1.73;;;;;;;11.19;100.00;101040.22;4940606;28;20074;-65
2021/11/05 09:25:36;;;;;;;2.58;1.58;;;;;;;11.18;100.00;101045.97;4941253;28;20117;-65
2021/11/05 09:28:02;;;;;;;2.33;1.35;;;;;;;11.21;100.00;101037.19;4940353;28;20134;-66
2021/11/05 09:30:28;;;;;;;4.32;1.65;;;;;;;11.24;100.00;101041.91;4940182;28;20102;-65
2021/11/05 09:32:54;;;;;;;4.07;1.60;;;;;;;11.23;100.00;101059.19;4937365;28;20056;-66
2021/11/05 09:35:21;;;;;;;3.58;1.33;;;;;;;11.27;100.00;101060.84;4942948;28;20047;-66
2021/11/05 09:37:49;;;;;;;3.13;1.50;;;;;;;11.30;100.00;101059.38;4942334;28;20050;-65
2021/11/05 09:40:15;;;;;;;2.92;1.30;;;;;;;11.43;100.00;101068.91;4943286;28;20046;-65
2021/11/05 09:42:47;;;;;;;3.63;1.67;;;;;;;11.57;100.00;101077.34;4941673;28;20043;-65
2021/11/05 09:45:14;;;;;;;3.88;1.38;;;;;;;11.60;100.00;101077.44;4941753;28;20043;-65
2021/11/05 09:47:41;;;;;;;2.50;1.10;;;;;;;11.68;100.00;101076.50;4940176;28;20043;-65
2021/11/05 09:50:09;;;;;;;3.25;1.60;;;;;;;11.72;100.00;101088.16;4956837;28;20081;-65
2021/11/05 09:52:35;;;;;;;4.03;1.15;;;;;;;11.77;100.00;101076.28;4981477;28;20081;-65
2021/11/05 09:55:03;;;;;;;2.85;1.65;;;;;;;11.81;100.00;101084.47;4979357;28;20448;-66
2021/11/05 09:57:29;;;;;;;3.78;1.58;;;;;;;11.91;100.00;101076.59;4982456;28;20594;-65
2021/11/05 09:59:56;;;;;;;2.25;1.60;;;;;;;11.97;100.00;101091.38;4978016;28;20035;-65
2021/11/05 10:02:22;;;;;;;5.68;1.50;;;;;;;11.95;100.00;101090.16;4981304;28;20034;-65
2021/11/05 10:04:48;;;;;;;2.03;1.20;;;;;;;11.93;100.00;101092.44;4976390;28;20030;-66
2021/11/05 10:07:13;;;;;;;9.23;1.25;;;;;;;12.03;100.00;101092.69;4982734;28;20477;-65
2021/11/05 10:09:56;;;;;;;2.35;1.42;;;;;;;12.07;100.00;101092.75;4982828;28;20101;-65
2021/11/05 10:12:27;;;;;;;3.20;1.35;;;;;;;12.09;100.00;101107.47;4975703;28;20034;-65
2021/11/05 10:15:03;;;;;;;3.88;1.50;;;;;;;12.15;100.00;101106.06;4981641;28;20065;-65
2021/11/05 10:17:32;;;;;;;2.13;1.02;;;;;;;12.12;100.00;101092.47;4980786;28;20022;-65
2021/11/05 10:20:05;;;;;;;3.80;1.00;;;;;;;12.15;100.00;101105.25;4978917;28;20629;-63
2021/11/05 10:22:35;;;;;;;1.98;0.95;;;;;;;12.16;100.00;101106.81;4980692;28;20113;-65
2021/11/05 10:25:26;;;;;;;1.77;1.17;;;;;;;12.14;100.00;101104.47;4979278;28;20556;-65
2021/11/05 10:28:05;;;;;;;2.90;1.35;;;;;;;12.17;100.00;101111.09;4985881;28;20030;-65
2021/11/05 10:30:44;;;;;;;2.13;0.88;;;;;;;12.27;100.00;101108.59;4975112;28;20035;-65
2021/11/05 10:33:14;;;;;;;1.83;0.93;;;;;;;12.36;100.00;101121.91;4982190;28;20034;-65
2021/11/05 10:35:46;;;;;;;0.95;0.75;;;;;;;12.43;100.00;101122.84;4983710;28;20766;-66
2021/11/05 10:38:13;;;;;;;1.90;1.17;;;;;;;12.44;100.00;101124.41;4976415;28;20109;-66
2021/11/05 10:40:42;;;;;;;2.42;1.02;;;;;;;12.55;100.00;101130.00;4975730;28;20031;-66
2021/11/05 10:43:07;;;;;;;1.52;1.05;;;;;;;12.53;100.00;101132.28;4981579;28;20396;-65
2021/11/05 10:45:36;;;;;;;1.88;0.98;;;;;;;12.50;100.00;101128.38;5010709;23;20408;-63
2021/11/05 10:48:09;;;;;;;2.30;1.15;;;;;;;12.59;100.00;101134.34;4996433;28;20030;-63
2021/11/05 10:50:53;;;;;;;1.17;0.70;;;;;;;12.60;100.00;101130.50;4995123;28;20045;-63
2021/11/05 10:53:21;;;;;;;2.03;0.90;;;;;;;12.64;100.00;101131.34;4991500;28;20061;-63
2021/11/05 10:55:47;;;;;;;1.52;0.90;;;;;;;12.67;100.00;101137.97;4995751;28;20034;-63
2021/11/05 10:58:19;;;;;;;2.33;0.73;;;;;;;12.75;100.00;101138.91;5001916;28;20036;-63
2021/11/05 11:00:46;;;;;;;0.88;0.60;;;;;;;12.78;100.00;101143.56;4997820;28;20120;-63
2021/11/05 11:03:13;;;;;;;1.88;0.90;;;;;;;12.82;100.00;101150.63;4996838;28;20495;-63
2021/11/05 11:05:42;;;;;;;0.70;0.50;;;;;;;12.85;100.00;101144.53;4999702;28;20026;-64
2021/11/05 11:08:19;;;;;;;0.93;0.60;;;;;;;12.83;100.00;101149.50;5001025;28;20033;-63
2021/11/05 11:10:46;;;;;;;0.85;0.70;;;;;;;12.76;100.00;101148.56;4996180;28;20037;-64
2021/11/05 11:13:37;;;;;;;1.58;0.63;;;;;;;12.71;100.00;101144.25;4997064;28;20026;-63
2021/11/05 11:16:09;;;;;;;0.43;0.43;;;;;;;12.81;100.00;101145.59;5002894;28;20415;-64
2021/11/05 11:18:52;;;;;;;0.88;0.60;;;;;;;12.87;100.00;101153.06;4997379;28;20038;-64
2021/11/05 11:21:19;;;;;;;0.75;0.45;;;;;;;12.94;100.00;101142.38;4992297;28;20056;-64